Time;durP1;ratioP1;P1;durP2;ratioP2;P2;SDS_P1;SDS_P2;PMS_P1;PMS_P2;Temp;Humidity;BMP_temperature;BMP_pressure;BME280_temperature;BME280_humidity;BME280_pressure;Samples;Min_cycle;Max_cycle;Signal;HPM_P1;HPM_P2
2024/01/30 00:01:00;;;;;;;27.17;16.17;;;4.80;23.70;;;;;;5071412;28;20414;-49
2024/01/30 00:03:26;;;;;;;22.97;14.47;;;4.90;16.10;;;;;;5072016;28;20170;-50
2024/01/30 00:05:52;;;;;;;37.77;14.67;;;4.90;1.00;;;;;;5071908;28;20196;-49
2024/01/30 00:08:17;;;;;;;26.47;14.60;;;4.90;1.00;;;;;;5071200;28;20503;-49
2024/01/30 00:10:43;;;;;;;22.23;14.37;;;4.90;1.00;;;;;;5071280;28;20182;-49
2024/01/30 00:13:08;;;;;;;24.93;14.40;;;4.90;1.00;;;;;;5072140;28;20228;-50
2024/01/30 00:15:35;;;;;;;20.37;13.07;;;4.90;99.90;;;;;;5070855;28;20228;-50
2024/01/30 00:18:01;;;;;;;21.20;13.87;;;5.00;99.90;;;;;;5069567;28;20269;-51
2024/01/30 00:20:26;;;;;;;18.67;12.47;;;5.00;99.90;;;;;;5072180;28;20444;-51
2024/01/30 00:22:52;;;;;;;20.90;13.40;;;4.90;99.90;;;;;;5072649;28;20455;-50
2024/01/30 00:25:17;;;;;;;25.10;13.53;;;4.90;99.90;;;;;;5070106;28;20189;-50
2024/01/30 00:27:43;;;;;;;21.33;14.43;;;4.80;69.50;;;;;;5069367;28;20705;-51
2024/01/30 00:30:09;;;;;;;22.90;13.57;;;4.70;57.60;;;;;;5071661;28;20244;-50
2024/01/30 00:32:35;;;;;;;18.70;12.10;;;4.70;55.60;;;;;;5070985;28;20386;-51
2024/01/30 00:35:00;;;;;;;23.07;13.67;;;4.60;61.90;;;;;;5070909;28;20795;-50
2024/01/30 00:37:26;;;;;;;20.60;13.60;;;4.60;99.90;;;;;;5070966;28;20178;-50
2024/01/30 00:39:51;;;;;;;20.27;13.07;;;4.50;99.90;;;;;;5070838;28;20701;-49
2024/01/30 00:42:17;;;;;;;18.67;12.60;;;4.50;99.90;;;;;;5071502;28;20178;-49
2024/01/30 00:44:43;;;;;;;19.80;13.07;;;4.40;99.90;;;;;;5071503;28;20672;-49
2024/01/30 00:47:08;;;;;;;25.40;12.60;;;4.40;99.90;;;;;;5069192;28;20210;-49
2024/01/30 00:50:20;;;;;;;21.23;14.20;;;4.30;99.90;;;;;;4981426;28;21098;-50
2024/01/30 00:52:46;;;;;;;24.27;12.83;;;4.30;99.90;;;;;;4970094;28;20507;-49
2024/01/30 00:55:12;;;;;;;23.47;13.47;;;4.30;99.90;;;;;;4960782;28;20208;-49
2024/01/30 00:57:38;;;;;;;25.07;13.30;;;4.20;99.90;;;;;;4964917;28;20205;-49
2024/01/30 01:00:06;;;;;;;18.57;13.00;;;4.10;99.90;;;;;;4963063;28;20438;-50
2024/01/30 01:02:31;;;;;;;24.63;14.13;;;4.10;99.90;;;;;;4964579;28;20193;-50
2024/01/30 01:04:57;;;;;;;19.30;13.00;;;4.10;1.00;;;;;;4966065;28;20955;-50
2024/01/30 01:07:23;;;;;;;23.63;13.60;;;4.10;1.00;;;;;;4965111;28;20201;-50
2024/01/30 01:09:48;;;;;;;27.50;16.50;;;4.00;1.00;;;;;;4964042;28;20750;-50
2024/01/30 01:12:14;;;;;;;23.03;14.60;;;4.00;1.00;;;;;;4959885;28;20204;-50
2024/01/30 01:14:39;;;;;;;23.87;14.70;;;4.00;1.00;;;;;;4964839;28;20190;-50
2024/01/30 01:17:05;;;;;;;20.93;13.90;;;4.00;1.00;;;;;;4964949;28;20190;-51
2024/01/30 01:19:30;;;;;;;20.20;13.57;;;4.00;75.90;;;;;;4964631;28;20626;-50
2024/01/30 01:21:56;;;;;;;24.90;13.97;;;4.00;72.20;;;;;;4962895;28;20243;-50
2024/01/30 01:24:22;;;;;;;21.67;11.57;;;4.00;60.40;;;;;;4966351;28;20209;-49
2024/01/30 01:26:47;;;;;;;20.83;13.00;;;4.00;99.90;;;;;;4964736;28;20422;-49
2024/01/30 01:29:13;;;;;;;22.33;12.77;;;4.00;99.90;;;;;;4961967;28;20213;-50
2024/01/30 01:31:43;;;;;;;20.47;13.50;;;4.10;99.90;;;;;;4964374;28;20229;-50
2024/01/30 01:34:12;;;;;;;21.50;13.33;;;4.10;99.90;;;;;;4966701;28;20222;-50
2024/01/30 01:36:38;;;;;;;16.90;10.77;;;4.10;96.80;;;;;;4964227;28;20978;-50
2024/01/30 01:39:04;;;;;;;21.80;13.10;;;4.10;99.90;;;;;;4959288;28;20441;-50
2024/01/30 01:41:33;;;;;;;21.43;12.40;;;4.10;99.90;;;;;;4963370;28;20248;-50
2024/01/30 01:44:00;;;;;;;20.90;12.63;;;4.10;66.70;;;;;;4963191;28;20428;-50
2024/01/30 01:46:32;;;;;;;24.97;13.07;;;4.00;1.00;;;;;;4964294;28;20512;-50
2024/01/30 01:48:59;;;;;;;22.87;13.57;;;4.00;1.00;;;;;;4965140;28;20488;-50
2024/01/30 01:51:27;;;;;;;22.03;13.40;;;3.90;1.00;;;;;;4967284;28;20448;-50
2024/01/30 01:53:55;;;;;;;18.37;12.03;;;3.90;1.00;;;;;;4965218;28;20918;-49
2024/01/30 01:56:23;;;;;;;18.67;12.93;;;3.90;39.60;;;;;;4965318;28;20873;-49
2024/01/30 01:58:49;;;;;;;21.80;12.80;;;3.90;99.90;;;;;;4963096;28;20421;-49
2024/01/30 02:01:18;;;;;;;22.53;12.70;;;3.90;1.00;;;;;;4952060;28;20439;-50
2024/01/30 02:03:45;;;;;;;20.73;13.27;;;4.00;1.00;;;;;;4951237;28;20453;-49
2024/01/30 02:06:11;;;;;;;24.83;13.43;;;4.00;1.00;;;;;;4950226;28;20422;-49
2024/01/30 02:08:37;;;;;;;21.33;13.17;;;4.10;1.00;;;;;;4950933;28;20477;-50
2024/01/30 02:11:03;;;;;;;26.00;13.87;;;4.10;1.00;;;;;;4950774;28;20651;-51
2024/01/30 02:13:29;;;;;;;19.50;12.80;;;4.10;1.00;;;;;;4951644;28;20537;-51
2024/01/30 02:15:55;;;;;;;20.30;12.00;;;4.20;1.00;;;;;;4950427;28;20186;-50
2024/01/30 02:18:21;;;;;;;21.90;12.10;;;4.20;99.90;;;;;;4948067;29;20183;-51
2024/01/30 02:20:47;;;;;;;43.83;13.40;;;4.20;99.90;;;;;;4952269;28;20190;-50
2024/01/30 02:23:15;;;;;;;18.00;13.03;;;4.30;99.90;;;;;;4950994;28;20433;-50
2024/01/30 02:25:44;;;;;;;22.13;13.50;;;4.30;99.90;;;;;;4950464;28;20522;-50
2024/01/30 02:28:13;;;;;;;20.20;12.60;;;4.30;99.90;;;;;;4951283;28;20480;-50
2024/01/30 02:30:40;;;;;;;21.27;12.93;;;4.40;99.90;;;;;;4949397;28;20462;-50
2024/01/30 02:33:05;;;;;;;17.70;12.03;;;4.40;99.90;;;;;;4949824;28;20433;-51
2024/01/30 02:35:31;;;;;;;16.10;10.90;;;4.40;23.90;;;;;;4947081;28;20780;-50
2024/01/30 02:37:57;;;;;;;19.27;12.07;;;4.40;1.00;;;;;;4943607;28;20186;-49
2024/01/30 02:40:22;;;;;;;19.60;11.50;;;4.40;1.00;;;;;;4950523;28;20197;-50
2024/01/30 02:42:48;;;;;;;20.87;12.67;;;4.40;1.00;;;;;;4950233;28;20218;-50
2024/01/30 02:45:14;;;;;;;21.27;11.53;;;4.40;1.00;;;;;;4950473;28;20190;-50
2024/01/30 02:47:40;;;;;;;16.33;11.73;;;4.40;1.00;;;;;;4950487;28;20185;-49
2024/01/30 02:50:06;;;;;;;17.87;11.87;;;4.40;1.00;;;;;;4950919;28;20273;-49
2024/01/30 02:52:32;;;;;;;18.97;11.30;;;4.40;1.00;;;;;;4945913;28;20773;-51
2024/01/30 02:54:57;;;;;;;17.67;11.50;;;4.40;1.00;;;;;;4950244;28;20461;-50
2024/01/30 02:57:23;;;;;;;19.10;11.83;;;4.40;1.00;;;;;;4950833;28;20281;-51
2024/01/30 02:59:48;;;;;;;26.07;11.67;;;4.40;1.00;;;;;;4950284;28;20186;-50
2024/01/30 03:02:14;;;;;;;22.80;11.77;;;4.40;1.00;;;;;;4950975;28;20196;-49
2024/01/30 03:04:42;;;;;;;19.53;11.90;;;4.40;1.00;;;;;;4948287;28;20185;-50
2024/01/30 03:07:08;;;;;;;19.10;11.50;;;4.40;99.90;;;;;;4949978;28;20182;-50
2024/01/30 03:09:33;;;;;;;16.33;10.80;;;4.30;99.90;;;;;;4947858;28;20596;-49
2024/01/30 03:11:59;;;;;;;16.87;11.10;;;4.30;99.90;;;;;;4949170;28;20261;-50
2024/01/30 03:14:24;;;;;;;16.90;11.63;;;4.20;99.90;;;;;;4950419;28;20190;-51
2024/01/30 03:16:50;;;;;;;15.57;11.03;;;4.20;99.90;;;;;;4950314;28;20182;-49
2024/01/30 03:19:16;;;;;;;18.27;11.60;;;4.20;99.90;;;;;;4949318;28;20198;-49
2024/01/30 03:21:41;;;;;;;18.57;11.13;;;4.20;99.90;;;;;;4948795;28;20237;-50
2024/01/30 03:24:07;;;;;;;18.67;11.27;;;4.10;99.90;;;;;;4949252;28;20293;-50
2024/01/30 03:26:32;;;;;;;16.00;11.87;;;4.10;99.90;;;;;;4948204;28;20638;-50
2024/01/30 03:28:58;;;;;;;15.63;10.03;;;4.20;99.90;;;;;;4950516;28;20232;-50
2024/01/30 03:31:23;;;;;;;19.83;11.97;;;4.10;99.90;;;;;;4950112;28;20191;-49
2024/01/30 03:33:49;;;;;;;19.87;12.43;;;4.20;99.90;;;;;;4950699;28;20669;-49
2024/01/30 03:36:15;;;;;;;17.37;11.37;;;4.10;99.90;;;;;;4948417;28;20202;-50
2024/01/30 03:38:41;;;;;;;18.30;11.30;;;4.20;99.90;;;;;;4942662;28;20236;-50
2024/01/30 03:41:10;;;;;;;19.00;11.90;;;4.20;99.90;;;;;;4950790;28;20442;-50
2024/01/30 03:43:36;;;;;;;19.90;12.10;;;4.20;99.90;;;;;;4945257;28;20206;-50
2024/01/30 03:46:02;;;;;;;19.40;11.80;;;4.10;99.90;;;;;;4948603;28;20430;-51
2024/01/30 03:48:28;;;;;;;21.70;13.13;;;4.10;99.90;;;;;;4948610;28;20547;-50
2024/01/30 03:50:54;;;;;;;20.30;12.67;;;4.10;99.90;;;;;;4949254;28;20418;-50
2024/01/30 03:53:20;;;;;;;18.17;12.50;;;4.10;99.90;;;;;;4949917;28;20426;-50
2024/01/30 03:55:45;;;;;;;18.30;12.20;;;4.10;99.90;;;;;;4948732;28;20218;-51
2024/01/30 03:58:11;;;;;;;17.17;12.93;;;4.10;99.90;;;;;;4948657;28;20187;-50
2024/01/30 04:00:36;;;;;;;19.37;12.40;;;4.10;99.90;;;;;;4945633;28;20225;-50
2024/01/30 04:03:02;;;;;;;20.07;12.67;;;4.10;99.90;;;;;;4950573;28;20253;-51
2024/01/30 04:05:28;;;;;;;21.53;12.60;;;4.20;99.90;;;;;;4950206;28;20552;-50
2024/01/30 04:07:54;;;;;;;19.50;13.13;;;4.00;99.90;;;;;;4948309;29;20453;-50
2024/01/30 04:10:19;;;;;;;22.83;14.07;;;4.10;99.90;;;;;;4948040;28;20222;-50
2024/01/30 04:12:45;;;;;;;29.10;15.03;;;4.10;99.90;;;;;;4949669;28;20226;-50
2024/01/30 04:15:11;;;;;;;20.73;13.17;;;4.00;99.90;;;;;;4948325;28;20190;-50
2024/01/30 04:17:36;;;;;;;24.23;13.43;;;4.00;99.90;;;;;;4947359;28;20710;-50
2024/01/30 04:20:02;;;;;;;20.07;12.80;;;4.00;99.90;;;;;;4949064;28;20193;-50
2024/01/30 04:22:27;;;;;;;21.73;13.93;;;3.90;99.90;;;;;;4949074;28;20192;-50
2024/01/30 04:24:53;;;;;;;18.70;13.20;;;3.90;1.00;;;;;;4948391;28;20190;-50
2024/01/30 04:27:19;;;;;;;28.83;14.37;;;3.90;1.00;;;;;;4949443;28;20285;-51
2024/01/30 04:29:44;;;;;;;21.17;13.13;;;3.90;1.00;;;;;;4948327;28;20232;-50
2024/01/30 04:32:10;;;;;;;21.33;13.30;;;3.80;1.00;;;;;;4950476;28;20646;-50
2024/01/30 04:34:36;;;;;;;20.50;14.40;;;3.80;1.00;;;;;;4954516;28;20720;-50
2024/01/30 04:37:02;;;;;;;22.37;13.57;;;3.80;1.00;;;;;;4947734;28;20198;-50
2024/01/30 04:39:28;;;;;;;21.10;13.40;;;3.80;13.10;;;;;;4949941;28;20775;-50
2024/01/30 04:41:54;;;;;;;23.97;14.00;;;3.80;14.10;;;;;;4948428;28;20445;-50
2024/01/30 04:44:19;;;;;;;22.40;14.60;;;3.70;1.00;;;;;;4947933;28;20190;-50
2024/01/30 04:46:45;;;;;;;20.33;14.00;;;3.70;44.90;;;;;;4954389;28;20534;-50
2024/01/30 04:49:11;;;;;;;19.63;12.97;;;3.70;99.90;;;;;;4948692;28;20241;-50
2024/01/30 04:51:36;;;;;;;18.50;13.50;;;3.70;99.90;;;;;;4945082;28;20182;-50
2024/01/30 04:54:02;;;;;;;24.20;14.13;;;3.70;94.50;;;;;;4947830;28;20182;-51
2024/01/30 04:56:27;;;;;;;21.77;13.60;;;3.70;99.90;;;;;;4948292;28;20280;-50
2024/01/30 04:58:53;;;;;;;21.80;14.10;;;3.70;99.90;;;;;;4948823;28;20190;-50
2024/01/30 05:01:19;;;;;;;19.37;13.60;;;3.70;99.90;;;;;;4947407;28;20218;-50
2024/01/30 05:03:44;;;;;;;23.33;13.80;;;3.60;1.00;;;;;;4952883;28;20555;-50
2024/01/30 05:06:10;;;;;;;20.70;14.30;;;3.60;1.00;;;;;;4949096;28;20182;-51
2024/01/30 05:08:38;;;;;;;23.30;14.97;;;3.60;1.00;;;;;;4947708;28;20693;-49
2024/01/30 05:11:07;;;;;;;22.27;14.43;;;3.60;1.00;;;;;;4946899;28;20194;-50
2024/01/30 05:13:33;;;;;;;23.80;14.43;;;3.60;1.00;;;;;;4948655;28;20529;-50
2024/01/30 05:15:58;;;;;;;22.17;13.67;;;3.60;99.90;;;;;;4947396;28;20521;-50
2024/01/30 05:18:24;;;;;;;23.10;14.97;;;3.60;99.90;;;;;;4948648;29;20186;-50
2024/01/30 05:20:50;;;;;;;23.17;13.93;;;3.60;99.90;;;;;;4947957;28;20194;-50
2024/01/30 05:23:16;;;;;;;21.93;14.13;;;3.70;1.00;;;;;;4947439;28;20438;-50
2024/01/30 05:25:42;;;;;;;17.43;13.17;;;3.70;1.00;;;;;;4942578;28;20459;-51
2024/01/30 05:28:07;;;;;;;19.47;13.80;;;3.70;1.00;;;;;;4946013;28;20203;-50
2024/01/30 05:30:33;;;;;;;27.40;15.37;;;3.70;1.00;;;;;;4949286;28;20278;-50
2024/01/30 05:32:58;;;;;;;20.57;14.10;;;3.80;1.00;;;;;;4949837;28;20189;-50
2024/01/30 05:35:24;;;;;;;28.07;16.03;;;3.80;1.00;;;;;;4949770;28;20244;-50
2024/01/30 05:37:50;;;;;;;22.60;14.17;;;3.90;1.00;;;;;;4946254;28;20706;-50
2024/01/30 05:40:16;;;;;;;23.53;14.43;;;3.90;1.00;;;;;;4950617;28;20276;-50
2024/01/30 05:42:42;;;;;;;23.40;13.60;;;3.90;1.00;;;;;;4946049;28;20293;-49
2024/01/30 05:45:08;;;;;;;25.20;15.13;;;3.90;1.00;;;;;;4951987;28;20513;-49
2024/01/30 05:47:34;;;;;;;21.83;15.10;;;3.90;99.90;;;;;;4951807;28;20244;-49
2024/01/30 05:50:00;;;;;;;23.87;15.30;;;3.90;1.00;;;;;;4951385;28;20497;-50
2024/01/30 05:52:25;;;;;;;24.50;14.73;;;3.90;1.00;;;;;;4954609;28;20442;-51
2024/01/30 05:54:51;;;;;;;27.57;16.30;;;3.90;1.00;;;;;;4951200;28;20194;-49
2024/01/30 05:57:16;;;;;;;26.67;14.17;;;3.90;60.70;;;;;;4951161;28;20190;-50
2024/01/30 05:59:43;;;;;;;27.03;15.07;;;3.90;1.00;;;;;;4946311;28;20675;-50
2024/01/30 06:02:11;;;;;;;22.33;15.10;;;3.90;21.10;;;;;;4950577;28;20194;-49
2024/01/30 06:04:36;;;;;;;30.00;15.53;;;4.00;99.90;;;;;;4950325;28;20434;-49
2024/01/30 06:07:02;;;;;;;30.13;14.60;;;4.00;99.90;;;;;;4950444;28;20956;-49
2024/01/30 06:09:28;;;;;;;24.73;14.93;;;4.20;1.00;;;;;;4951983;28;20229;-49
2024/01/30 06:11:54;;;;;;;24.50;14.50;;;4.20;99.90;;;;;;4950781;28;20190;-49
2024/01/30 06:14:20;;;;;;;22.20;14.27;;;4.30;1.00;;;;;;4950564;28;20925;-49
2024/01/30 06:16:45;;;;;;;24.07;15.33;;;4.20;99.90;;;;;;4949241;28;20209;-49
2024/01/30 06:19:11;;;;;;;23.67;15.63;;;4.30;1.00;;;;;;4951091;28;20205;-49
2024/01/30 06:21:38;;;;;;;27.93;15.40;;;4.40;1.00;;;;;;4949888;28;20191;-50
2024/01/30 06:24:04;;;;;;;23.77;14.60;;;4.50;1.00;;;;;;4950019;28;20247;-50
2024/01/30 06:26:29;;;;;;;25.33;14.40;;;4.60;1.00;;;;;;4950641;28;20430;-50
2024/01/30 06:28:55;;;;;;;24.43;14.37;;;4.60;99.90;;;;;;4949767;28;20484;-51
2024/01/30 06:31:21;;;;;;;25.83;15.43;;;4.70;99.90;;;;;;4951565;28;20190;-50
2024/01/30 06:33:50;;;;;;;28.73;16.17;;;4.60;1.00;;;;;;4948737;28;20190;-50
2024/01/30 06:36:15;;;;;;;22.80;14.67;;;4.60;1.00;;;;;;4949505;28;20194;-50
2024/01/30 06:38:41;;;;;;;22.90;13.30;;;4.60;17.40;;;;;;4949241;28;20488;-49
2024/01/30 06:41:07;;;;;;;24.93;15.30;;;4.60;33.70;;;;;;4956089;28;20258;-50
2024/01/30 06:43:32;;;;;;;24.60;14.90;;;4.60;1.00;;;;;;4951466;28;20187;-51
2024/01/30 06:45:59;;;;;;;30.80;15.70;;;4.70;99.90;;;;;;4950762;28;20183;-51
2024/01/30 06:48:24;;;;;;;27.17;15.03;;;4.70;99.90;;;;;;4949304;28;20249;-49
2024/01/30 06:50:53;;;;;;;24.50;15.10;;;4.70;99.90;;;;;;4946998;28;20453;-49
2024/01/30 06:53:19;;;;;;;27.93;14.30;;;4.70;99.90;;;;;;4951058;28;20197;-49
2024/01/30 06:55:45;;;;;;;25.70;15.40;;;4.70;25.70;;;;;;4949801;28;20505;-49
2024/01/30 06:58:10;;;;;;;29.30;16.17;;;4.80;99.90;;;;;;4949175;28;20445;-50
2024/01/30 07:00:36;;;;;;;26.43;15.90;;;4.80;1.00;;;;;;4950526;28;20259;-49
2024/01/30 07:03:02;;;;;;;27.73;15.50;;;4.70;1.00;;;;;;4948630;28;20190;-50
2024/01/30 07:05:27;;;;;;;26.03;15.53;;;4.70;1.00;;;;;;4950297;28;20194;-51
2024/01/30 07:07:53;;;;;;;28.53;15.53;;;4.70;1.00;;;;;;4948149;28;20186;-49
2024/01/30 07:10:18;;;;;;;28.63;16.27;;;4.70;1.00;;;;;;4953777;28;20225;-50
2024/01/30 07:12:44;;;;;;;27.00;15.17;;;4.70;1.00;;;;;;4949693;28;21199;-50
2024/01/30 07:15:10;;;;;;;25.00;14.50;;;4.60;1.00;;;;;;4950352;28;20289;-50
2024/01/30 07:17:36;;;;;;;25.30;16.30;;;4.60;1.00;;;;;;4948762;28;20202;-50
2024/01/30 07:20:04;;;;;;;26.57;16.00;;;4.50;1.00;;;;;;4952049;28;20438;-50
2024/01/30 07:22:31;;;;;;;26.57;15.37;;;4.50;98.70;;;;;;4953751;28;20201;-51
2024/01/30 07:24:57;;;;;;;26.43;15.57;;;4.50;99.90;;;;;;4955382;28;20440;-50
2024/01/30 07:27:22;;;;;;;26.30;16.13;;;4.40;99.90;;;;;;4954552;28;20844;-49
2024/01/30 07:29:48;;;;;;;25.60;15.80;;;4.40;1.00;;;;;;4950086;28;20473;-50
2024/01/30 07:32:14;;;;;;;27.77;16.97;;;4.40;1.00;;;;;;4948412;28;20199;-49
2024/01/30 07:34:39;;;;;;;26.77;15.50;;;4.50;99.90;;;;;;4949896;28;20248;-49
2024/01/30 07:37:06;;;;;;;24.60;15.33;;;4.50;99.90;;;;;;4948343;28;20266;-49
2024/01/30 07:39:32;;;;;;;27.50;15.10;;;4.60;1.00;;;;;;4950203;28;20181;-49
2024/01/30 07:41:57;;;;;;;26.17;16.20;;;4.60;1.00;;;;;;4941480;28;20427;-50
2024/01/30 07:44:23;;;;;;;39.43;17.70;;;4.60;1.00;;;;;;4949492;28;20202;-50
2024/01/30 07:46:49;;;;;;;29.43;17.07;;;4.70;1.00;;;;;;4949317;28;20188;-50
2024/01/30 07:49:14;;;;;;;29.23;16.27;;;4.70;1.00;;;;;;4949349;28;20348;-50
2024/01/30 07:51:40;;;;;;;26.33;15.57;;;4.70;1.00;;;;;;4950061;28;20230;-50
2024/01/30 07:54:11;;;;;;;31.47;17.40;;;4.80;1.00;;;;;;4947773;28;20190;-50
2024/01/30 07:56:37;;;;;;;28.13;17.40;;;4.90;1.00;;;;;;4949834;28;20201;-50
2024/01/30 07:59:02;;;;;;;25.23;15.97;;;5.00;99.90;;;;;;4943074;28;20418;-50
2024/01/30 08:01:28;;;;;;;27.23;15.53;;;5.10;99.90;;;;;;4949143;28;20649;-50
2024/01/30 08:03:53;;;;;;;27.03;15.70;;;5.10;1.00;;;;;;4947891;28;20267;-50
2024/01/30 08:06:19;;;;;;;25.70;16.10;;;5.20;1.00;;;;;;4950407;28;20603;-51
2024/01/30 08:08:45;;;;;;;27.60;16.53;;;5.20;1.00;;;;;;4950055;28;20257;-48
2024/01/30 08:11:10;;;;;;;29.20;16.47;;;5.30;99.90;;;;;;4948167;28;20222;-48
2024/01/30 08:13:36;;;;;;;29.70;17.00;;;5.40;99.90;;;;;;4948819;28;20198;-50
2024/01/30 08:16:01;;;;;;;26.40;15.83;;;5.40;30.50;;;;;;4945522;28;20190;-48
2024/01/30 08:18:27;;;;;;;34.67;16.77;;;5.50;1.00;;;;;;4949615;28;20205;-49
2024/01/30 08:20:53;;;;;;;26.17;16.20;;;5.70;1.00;;;;;;4949890;28;20195;-49
2024/01/30 08:23:18;;;;;;;25.07;17.00;;;5.80;64.70;;;;;;4947924;28;20194;-49
2024/01/30 08:25:44;;;;;;;27.47;15.73;;;5.80;1.00;;;;;;4948355;28;20259;-50
2024/01/30 08:28:09;;;;;;;31.97;16.80;;;5.90;1.00;;;;;;4949616;28;20186;-50
2024/01/30 08:30:35;;;;;;;33.70;16.03;;;6.00;99.90;;;;;;4936583;28;20237;-50
2024/01/30 08:33:01;;;;;;;25.40;14.83;;;6.10;99.90;;;;;;4947297;28;20189;-50
2024/01/30 08:35:26;;;;;;;26.43;15.93;;;6.20;58.30;;;;;;4948500;28;21127;-50
2024/01/30 08:37:54;;;;;;;27.03;15.97;;;6.30;1.00;;;;;;4949627;28;20235;-49
2024/01/30 08:40:20;;;;;;;26.00;15.30;;;6.30;1.00;;;;;;4948466;28;20780;-50
2024/01/30 08:42:45;;;;;;;27.40;17.03;;;6.40;1.00;;;;;;4947701;28;20513;-49
2024/01/30 08:45:11;;;;;;;28.67;16.13;;;6.50;1.00;;;;;;4948676;28;20929;-50
2024/01/30 08:47:37;;;;;;;24.47;15.83;;;6.40;1.00;;;;;;4949772;28;20543;-50
2024/01/30 08:50:02;;;;;;;25.93;15.40;;;6.50;1.00;;;;;;4946606;28;20671;-50
2024/01/30 08:52:28;;;;;;;21.10;14.47;;;6.50;1.00;;;;;;4947452;28;20201;-49
2024/01/30 08:54:54;;;;;;;33.30;15.33;;;6.50;99.90;;;;;;4949298;28;20201;-50
2024/01/30 08:57:19;;;;;;;28.07;16.27;;;6.60;99.90;;;;;;4948533;28;20201;-50
2024/01/30 08:59:46;;;;;;;27.83;15.50;;;6.60;99.90;;;;;;4949733;28;20933;-50
2024/01/30 09:02:15;;;;;;;31.27;15.27;;;6.70;99.90;;;;;;4947208;28;20190;-49
2024/01/30 09:04:41;;;;;;;28.40;15.57;;;6.70;99.90;;;;;;4948742;28;20437;-49
2024/01/30 09:07:09;;;;;;;27.70;15.40;;;6.70;99.90;;;;;;4946303;28;20426;-50
2024/01/30 09:09:34;;;;;;;27.00;16.07;;;6.80;99.90;;;;;;4949335;28;20248;-49
2024/01/30 09:12:04;;;;;;;25.67;15.67;;;6.90;99.90;;;;;;4953402;28;21005;-50
2024/01/30 09:14:30;;;;;;;29.90;15.67;;;6.90;99.90;;;;;;4951554;28;20194;-49
2024/01/30 09:16:56;;;;;;;26.50;14.70;;;7.00;99.90;;;;;;4953824;28;20433;-50
2024/01/30 09:19:21;;;;;;;26.50;14.40;;;7.00;99.90;;;;;;4956044;28;20433;-49
2024/01/30 09:21:47;;;;;;;23.57;14.80;;;7.00;99.90;;;;;;4952185;28;20193;-50
2024/01/30 09:24:13;;;;;;;26.80;15.43;;;7.00;99.90;;;;;;4948312;28;20222;-49
2024/01/30 09:26:38;;;;;;;24.27;14.40;;;7.10;99.90;;;;;;4951252;28;20182;-50
2024/01/30 09:29:04;;;;;;;32.90;15.17;;;7.20;99.90;;;;;;4951892;28;20221;-50
2024/01/30 09:31:29;;;;;;;23.20;15.80;;;7.20;99.90;;;;;;4946750;28;20210;-50
2024/01/30 09:33:55;;;;;;;28.87;15.20;;;7.20;99.90;;;;;;4951388;28;20213;-50
2024/01/30 09:36:20;;;;;;;24.47;15.40;;;7.30;99.90;;;;;;4951498;28;20269;-50
2024/01/30 09:38:46;;;;;;;27.43;16.10;;;7.20;99.90;;;;;;4951590;28;20190;-50
2024/01/30 09:41:12;;;;;;;22.20;14.77;;;7.20;99.90;;;;;;4951239;28;20190;-50
2024/01/30 09:43:41;;;;;;;24.37;16.30;;;7.20;99.90;;;;;;4950223;28;20721;-49
2024/01/30 09:46:13;;;;;;;24.37;15.13;;;7.20;99.90;;;;;;4952475;28;20858;-50
2024/01/30 09:48:40;;;;;;;31.50;15.23;;;7.30;99.90;;;;;;4950348;28;20500;-50
2024/01/30 09:51:08;;;;;;;32.07;15.70;;;7.30;99.90;;;;;;4950941;28;20831;-50
2024/01/30 09:53:33;;;;;;;24.47;15.47;;;7.50;99.90;;;;;;4953116;28;20476;-50
2024/01/30 09:56:01;;;;;;;23.70;16.10;;;7.50;99.90;;;;;;4951507;28;20458;-50
2024/01/30 09:58:26;;;;;;;29.33;16.63;;;7.60;99.90;;;;;;4944011;28;20206;-50
2024/01/30 10:00:53;;;;;;;25.50;15.30;;;7.70;99.90;;;;;;4950481;28;20449;-51
2024/01/30 10:03:19;;;;;;;28.43;15.70;;;7.80;99.90;;;;;;4951605;28;20190;-49
2024/01/30 10:05:54;;;;;;;28.07;15.73;;;7.80;86.70;;;;;;4949924;28;20521;-50
2024/01/30 10:08:20;;;;;;;35.47;17.57;;;7.90;91.20;;;;;;4952209;28;20200;-49
2024/01/30 10:10:47;;;;;;;26.90;16.27;;;8.00;68.90;;;;;;4955239;28;20536;-50
2024/01/30 10:13:13;;;;;;;25.10;15.87;;;8.10;45.30;;;;;;4950146;28;20182;-49
2024/01/30 10:15:38;;;;;;;24.90;16.30;;;8.20;34.00;;;;;;4949866;28;20511;-50
2024/01/30 10:18:06;;;;;;;26.80;16.50;;;8.30;37.80;;;;;;4951290;28;20202;-49
2024/01/30 10:20:32;;;;;;;25.50;15.73;;;8.40;22.30;;;;;;4950363;28;20196;-50
2024/01/30 10:22:58;;;;;;;31.93;16.00;;;8.40;30.20;;;;;;4951207;28;20479;-51
2024/01/30 10:25:26;;;;;;;28.30;15.77;;;8.60;18.30;;;;;;4950808;28;20422;-49
2024/01/30 10:27:58;;;;;;;29.67;17.00;;;8.60;20.80;;;;;;4950794;28;20466;-49
2024/01/30 10:30:24;;;;;;;26.23;17.20;;;8.70;17.60;;;;;;4944726;28;20867;-51
2024/01/30 10:32:50;;;;;;;26.83;15.80;;;8.80;6.20;;;;;;4947841;28;20474;-50
2024/01/30 10:35:16;;;;;;;33.03;16.27;;;8.90;1.00;;;;;;4949570;28;20474;-50
2024/01/30 10:37:46;;;;;;;24.60;16.50;;;9.00;1.00;;;;;;4953251;28;20224;-51
2024/01/30 10:40:14;;;;;;;29.33;17.23;;;9.00;1.00;;;;;;4953704;28;20193;-50
2024/01/30 10:42:43;;;;;;;29.30;16.10;;;9.00;1.00;;;;;;4950721;28;20765;-49
2024/01/30 10:45:13;;;;;;;28.03;16.93;;;9.20;1.00;;;;;;4950020;28;20491;-49
2024/01/30 10:47:41;;;;;;;29.63;15.50;;;9.20;1.00;;;;;;4950495;28;20433;-50
2024/01/30 10:50:08;;;;;;;31.87;16.70;;;9.30;1.00;;;;;;4948095;28;20493;-50
2024/01/30 10:52:34;;;;;;;23.83;15.40;;;9.40;1.00;;;;;;4951064;28;20949;-49
2024/01/30 10:55:00;;;;;;;33.20;15.30;;;9.50;1.00;;;;;;4950571;28;20479;-50
2024/01/30 10:57:27;;;;;;;35.87;16.50;;;9.60;1.00;;;;;;4949580;28;20194;-50
2024/01/30 10:59:57;;;;;;;29.90;16.57;;;9.70;1.00;;;;;;4951643;28;20845;-51
2024/01/30 11:02:23;;;;;;;28.73;15.90;;;9.90;1.00;;;;;;4951434;28;20457;-50
2024/01/30 11:04:49;;;;;;;30.17;16.37;;;9.90;1.00;;;;;;4949083;28;20426;-50
2024/01/30 11:07:23;;;;;;;26.27;16.30;;;10.00;1.00;;;;;;4949141;28;20445;-50
2024/01/30 11:10:05;;;;;;;29.73;16.33;;;10.00;1.00;;;;;;4950603;28;20482;-50
2024/01/30 11:12:35;;;;;;;27.30;15.53;;;9.90;1.00;;;;;;4950525;28;20472;-50
2024/01/30 11:15:09;;;;;;;25.23;14.90;;;9.70;1.00;;;;;;4951052;28;20425;-50
2024/01/30 11:17:43;;;;;;;26.97;14.13;;;9.70;1.00;;;;;;4949742;28;20444;-50
2024/01/30 11:20:16;;;;;;;25.07;15.40;;;9.70;1.00;;;;;;4949321;28;20429;-50
2024/01/30 11:22:51;;;;;;;30.63;16.70;;;9.70;1.00;;;;;;4947067;28;20437;-50
2024/01/30 11:25:19;;;;;;;24.80;15.10;;;9.70;1.00;;;;;;4950457;28;20424;-50
2024/01/30 11:27:45;;;;;;;23.27;14.57;;;9.70;1.00;;;;;;4945418;28;20431;-49
2024/01/30 11:30:31;;;;;;;22.43;14.37;;;9.70;1.00;;;;;;4941910;28;20488;-50
2024/01/30 11:33:11;;;;;;;23.23;14.60;;;9.70;1.00;;;;;;4961443;28;20526;-50
2024/01/30 11:35:39;;;;;;;24.70;14.60;;;9.70;1.00;;;;;;4968590;28;20695;-50
2024/01/30 11:38:05;;;;;;;24.10;15.23;;;9.70;1.00;;;;;;4970839;28;20448;-49
2024/01/30 11:40:32;;;;;;;24.40;14.60;;;9.60;1.00;;;;;;4942952;28;20439;-49
2024/01/30 11:42:59;;;;;;;28.40;14.23;;;9.60;1.00;;;;;;4932083;28;20434;-50
2024/01/30 11:45:27;;;;;;;23.60;15.27;;;9.60;1.00;;;;;;4930707;28;20488;-51
2024/01/30 11:47:52;;;;;;;22.13;13.40;;;9.70;1.00;;;;;;4931993;28;20433;-50
2024/01/30 11:50:18;;;;;;;26.23;14.47;;;9.70;1.00;;;;;;4931975;29;20577;-49
2024/01/30 11:52:44;;;;;;;25.13;14.83;;;9.80;1.00;;;;;;4930870;28;20190;-50
2024/01/30 11:55:10;;;;;;;25.20;12.60;;;9.70;1.00;;;;;;4931391;28;20233;-50
2024/01/30 11:57:36;;;;;;;18.73;12.07;;;9.90;1.00;;;;;;4929207;28;20198;-49
2024/01/30 12:00:10;;;;;;;19.77;12.40;;;9.90;1.00;;;;;;4931770;28;20426;-49
2024/01/30 12:02:39;;;;;;;19.60;12.23;;;10.00;1.00;;;;;;4944296;28;20445;-50
2024/01/30 12:05:11;;;;;;;20.30;12.83;;;10.00;1.00;;;;;;4950248;28;20980;-51
2024/01/30 12:07:37;;;;;;;25.10;12.30;;;10.10;1.00;;;;;;4949502;28;20474;-50
2024/01/30 12:10:03;;;;;;;17.60;11.93;;;10.10;1.00;;;;;;4948959;28;20505;-51
2024/01/30 12:12:29;;;;;;;21.70;11.40;;;10.10;1.00;;;;;;4951526;28;20213;-51
2024/01/30 12:14:56;;;;;;;18.47;11.77;;;10.10;1.00;;;;;;4934678;28;20431;-51
2024/01/30 12:17:28;;;;;;;19.70;11.67;;;10.20;1.00;;;;;;4957777;28;20482;-50
2024/01/30 12:20:11;;;;;;;23.23;12.67;;;10.10;1.00;;;;;;4964524;28;20456;-51
2024/01/30 12:22:42;;;;;;;18.50;11.67;;;10.10;1.00;;;;;;4942886;28;20535;-51
2024/01/30 12:25:12;;;;;;;18.33;11.00;;;10.00;1.00;;;;;;4949479;28;20402;-51
2024/01/30 12:27:39;;;;;;;17.97;11.70;;;10.00;1.00;;;;;;4946935;29;20438;-50
2024/01/30 12:30:09;;;;;;;15.87;10.60;;;10.10;1.00;;;;;;4948228;28;20481;-50
2024/01/30 12:32:40;;;;;;;18.73;11.70;;;10.00;1.00;;;;;;4938246;28;20484;-50
2024/01/30 12:35:16;;;;;;;16.90;11.17;;;10.10;1.00;;;;;;4949391;28;20902;-51
2024/01/30 12:37:43;;;;;;;16.77;11.63;;;10.10;1.00;;;;;;4948020;28;20504;-49